Time;durP1;ratioP1;P1;durP2;ratioP2;P2;SDS_P1;SDS_P2;PMS_P1;PMS_P2;Temp;Humidity;BMP_temperature;BMP_pressure;BME280_temperature;BME280_humidity;BME280_pressure;Samples;Min_cycle;Max_cycle;Signal;HPM_P1;HPM_P2
2023/05/07 00:01:50;;;;;;;4.10;3.90;;;;;;;;;;4947384;28;20496;-75
2023/05/07 00:04:16;;;;;;;3.70;3.60;;;;;;;;;;4946043;29;20446;-74
2023/05/07 00:06:42;;;;;;;5.63;5.27;;;;;;;;;;4950369;29;20522;-75
2023/05/07 00:09:08;;;;;;;4.93;4.70;;;;;;;;;;4947618;29;20454;-75
2023/05/07 00:11:34;;;;;;;5.03;4.80;;;;;;;;;;4948999;29;20793;-74
2023/05/07 00:14:01;;;;;;;3.83;3.33;;;;;;;;;;4946727;29;20651;-74
2023/05/07 00:16:27;;;;;;;4.20;4.00;;;;;;;;;;4947619;29;20426;-74
2023/05/07 00:18:53;;;;;;;4.23;3.97;;;;;;;;;;4947058;29;20449;-74
2023/05/07 00:21:19;;;;;;;3.70;3.27;;;;;;;;;;4948649;29;20430;-74
2023/05/07 00:23:45;;;;;;;3.93;3.83;;;;;;;;;;4943894;29;20477;-74
2023/05/07 00:26:11;;;;;;;4.80;4.60;;;;;;;;;;4948785;29;20424;-75
2023/05/07 00:28:37;;;;;;;4.80;4.60;;;;;;;;;;4944942;28;20410;-74
2023/05/07 00:31:03;;;;;;;5.20;4.93;;;;;;;;;;4948251;29;20425;-74
2023/05/07 00:33:29;;;;;;;4.50;4.27;;;;;;;;;;4947181;29;20253;-73
2023/05/07 00:35:55;;;;;;;5.57;5.28;;;;;;;;;;4947619;29;20423;-75
2023/05/07 00:38:21;;;;;;;5.40;5.15;;;;;;;;;;4944902;29;21183;-75
2023/05/07 00:40:47;;;;;;;5.65;5.35;;;;;;;;;;4948954;28;20414;-75
2023/05/07 00:43:13;;;;;;;5.10;4.90;;;;;;;;;;4959638;28;20874;-75
2023/05/07 00:45:40;;;;;;;5.33;4.80;;;;;;;;;;4964450;28;20186;-75
2023/05/07 00:48:06;;;;;;;3.87;3.77;;;;;;;;;;4960489;28;20439;-75
2023/05/07 00:50:32;;;;;;;7.60;5.43;;;;;;;;;;4949239;29;20472;-75
2023/05/07 00:53:00;;;;;;;6.10;5.80;;;;;;;;;;4961306;28;20984;-75
2023/05/07 00:55:26;;;;;;;5.70;5.17;;;;;;;;;;4949914;29;20913;-74
2023/05/07 00:57:52;;;;;;;6.23;5.63;;;;;;;;;;4963164;28;20434;-75
2023/05/07 01:00:19;;;;;;;6.20;5.73;;;;;;;;;;4949498;29;20411;-74
2023/05/07 01:02:46;;;;;;;6.17;5.97;;;;;;;;;;4964460;28;20440;-74
2023/05/07 01:05:13;;;;;;;5.57;5.37;;;;;;;;;;4967756;28;20461;-74
2023/05/07 01:07:40;;;;;;;5.83;5.63;;;;;;;;;;4947541;28;20450;-74
2023/05/07 01:10:07;;;;;;;5.17;4.73;;;;;;;;;;4940031;28;20482;-75
2023/05/07 01:12:34;;;;;;;5.83;5.53;;;;;;;;;;4943566;28;20502;-75
2023/05/07 01:15:01;;;;;;;5.53;5.03;;;;;;;;;;4958439;28;20430;-74
2023/05/07 01:17:27;;;;;;;5.00;4.80;;;;;;;;;;4933013;29;20974;-75
2023/05/07 01:19:53;;;;;;;5.30;5.10;;;;;;;;;;4941775;28;20455;-74
2023/05/07 01:22:29;;;;;;;6.00;5.60;;;;;;;;;;4954619;28;20433;-75
2023/05/07 01:24:56;;;;;;;6.57;6.20;;;;;;;;;;4962726;28;20437;-74
2023/05/07 01:27:22;;;;;;;5.30;5.00;;;;;;;;;;4967408;28;20532;-75
2023/05/07 01:29:48;;;;;;;5.50;5.30;;;;;;;;;;4955332;28;21009;-75
2023/05/07 01:32:14;;;;;;;5.23;5.13;;;;;;;;;;4945399;29;20541;-75
2023/05/07 01:34:40;;;;;;;5.13;5.03;;;;;;;;;;4934223;28;21015;-75
2023/05/07 01:37:06;;;;;;;6.23;5.80;;;;;;;;;;4956773;28;20898;-74
2023/05/07 01:39:32;;;;;;;4.93;4.63;;;;;;;;;;4934853;28;20533;-74
2023/05/07 01:41:59;;;;;;;4.93;4.83;;;;;;;;;;4948084;29;20506;-74
2023/05/07 01:44:26;;;;;;;4.67;4.50;;;;;;;;;;4946078;29;20810;-75
2023/05/07 01:46:52;;;;;;;5.20;4.90;;;;;;;;;;4948518;29;20441;-74
2023/05/07 01:49:18;;;;;;;5.57;5.27;;;;;;;;;;4927318;29;20449;-75
2023/05/07 01:51:45;;;;;;;4.47;4.20;;;;;;;;;;4945259;29;20434;-74
2023/05/07 01:54:11;;;;;;;5.00;4.80;;;;;;;;;;4945586;29;20712;-75
2023/05/07 01:56:37;;;;;;;5.03;3.90;;;;;;;;;;4948314;29;20813;-75
2023/05/07 01:59:03;;;;;;;4.53;4.33;;;;;;;;;;4944276;29;20445;-74
2023/05/07 02:01:29;;;;;;;4.67;4.20;;;;;;;;;;4948207;29;20434;-75
2023/05/07 02:03:55;;;;;;;3.93;3.73;;;;;;;;;;4944781;29;20820;-73
2023/05/07 02:06:21;;;;;;;4.53;4.40;;;;;;;;;;4948046;29;20454;-74
2023/05/07 02:08:47;;;;;;;3.80;3.70;;;;;;;;;;4946303;29;20446;-74
2023/05/07 02:11:13;;;;;;;5.67;5.47;;;;;;;;;;4947885;29;20999;-74
2023/05/07 02:13:43;;;;;;;5.00;4.60;;;;;;;;;;4947086;29;20477;-74
2023/05/07 02:16:09;;;;;;;5.20;4.90;;;;;;;;;;4946828;29;20452;-74
2023/05/07 02:18:35;;;;;;;5.40;4.90;;;;;;;;;;4945018;29;20195;-74
2023/05/07 02:21:01;;;;;;;4.23;4.13;;;;;;;;;;4947196;29;20937;-74
2023/05/07 02:23:28;;;;;;;6.20;5.20;;;;;;;;;;4937697;28;20402;-74
2023/05/07 02:25:54;;;;;;;6.10;5.70;;;;;;;;;;4950417;29;20394;-74
2023/05/07 02:28:20;;;;;;;5.20;5.10;;;;;;;;;;4948811;29;20485;-74
2023/05/07 02:30:46;;;;;;;5.82;5.63;;;;;;;;;;4950106;29;20501;-74
2023/05/07 02:33:13;;;;;;;6.35;5.95;;;;;;;;;;4948558;29;20500;-75
2023/05/07 02:35:39;;;;;;;5.75;5.47;;;;;;;;;;4950236;29;20449;-74
2023/05/07 02:38:06;;;;;;;6.22;5.82;;;;;;;;;;4947181;29;20470;-74
2023/05/07 02:40:33;;;;;;;6.40;6.00;;;;;;;;;;4946361;29;20438;-74
2023/05/07 02:42:59;;;;;;;7.85;7.35;;;;;;;;;;4946490;29;20406;-74
2023/05/07 02:45:25;;;;;;;6.20;5.80;;;;;;;;;;4949033;29;20802;-74
2023/05/07 02:47:51;;;;;;;6.55;6.15;;;;;;;;;;4947101;29;20424;-74
2023/05/07 02:50:17;;;;;;;6.10;5.80;;;;;;;;;;4942413;29;20408;-75
2023/05/07 02:52:43;;;;;;;7.20;6.70;;;;;;;;;;4945600;29;20403;-75
2023/05/07 02:55:10;;;;;;;7.00;6.63;;;;;;;;;;4950345;29;20390;-75
2023/05/07 02:57:36;;;;;;;6.45;6.15;;;;;;;;;;4946870;29;20411;-75
2023/05/07 03:00:10;;;;;;;6.90;6.40;;;;;;;;;;4942671;29;20477;-75
2023/05/07 03:02:36;;;;;;;6.57;6.28;;;;;;;;;;4947028;29;20952;-76
2023/05/07 03:05:03;;;;;;;6.82;6.53;;;;;;;;;;4949866;29;20390;-75
2023/05/07 03:07:29;;;;;;;6.90;6.50;;;;;;;;;;4949921;29;20406;-76
2023/05/07 03:09:55;;;;;;;7.72;7.32;;;;;;;;;;4940009;29;20449;-75
2023/05/07 03:12:21;;;;;;;8.00;7.53;;;;;;;;;;4944370;29;20194;-75
2023/05/07 03:14:47;;;;;;;6.97;6.57;;;;;;;;;;4941590;29;20999;-75
2023/05/07 03:17:13;;;;;;;5.93;5.37;;;;;;;;;;4945640;29;20438;-75
2023/05/07 03:19:39;;;;;;;6.37;5.93;;;;;;;;;;4946795;29;20446;-75
2023/05/07 03:22:05;;;;;;;6.23;5.93;;;;;;;;;;4947570;29;20522;-75
2023/05/07 03:24:31;;;;;;;5.30;5.10;;;;;;;;;;4936532;29;20529;-75
2023/05/07 03:27:05;;;;;;;5.63;5.43;;;;;;;;;;4949195;29;20430;-75
2023/05/07 03:29:31;;;;;;;5.80;5.50;;;;;;;;;;4942735;28;20446;-75
2023/05/07 03:31:57;;;;;;;6.97;6.67;;;;;;;;;;4948788;29;20426;-74
2023/05/07 03:34:23;;;;;;;7.18;6.68;;;;;;;;;;4936807;29;20399;-75
2023/05/07 03:36:49;;;;;;;6.40;6.10;;;;;;;;;;4949218;28;20126;-75
2023/05/07 03:39:15;;;;;;;6.07;5.77;;;;;;;;;;4946828;29;20541;-75
2023/05/07 03:41:41;;;;;;;6.50;6.10;;;;;;;;;;4942326;29;20546;-75
2023/05/07 03:44:07;;;;;;;6.23;5.40;;;;;;;;;;4943255;29;20477;-74
2023/05/07 03:46:34;;;;;;;6.40;6.10;;;;;;;;;;4950236;29;20432;-75
2023/05/07 03:49:00;;;;;;;6.90;6.40;;;;;;;;;;4943731;29;20447;-75
2023/05/07 03:51:26;;;;;;;6.67;6.37;;;;;;;;;;4949531;29;20473;-75
2023/05/07 03:53:52;;;;;;;7.00;6.60;;;;;;;;;;4946132;29;20514;-75
2023/05/07 03:56:19;;;;;;;6.03;5.73;;;;;;;;;;4948741;29;20438;-75
2023/05/07 03:58:45;;;;;;;6.97;6.47;;;;;;;;;;4947376;29;20845;-74
2023/05/07 04:01:11;;;;;;;6.63;5.80;;;;;;;;;;4948812;29;20872;-75
2023/05/07 04:03:38;;;;;;;6.47;6.07;;;;;;;;;;4946782;29;20838;-74
2023/05/07 04:06:04;;;;;;;6.57;6.27;;;;;;;;;;4949062;29;20450;-74
2023/05/07 04:08:30;;;;;;;6.63;6.20;;;;;;;;;;4944820;29;20497;-74
2023/05/07 04:10:56;;;;;;;6.87;6.47;;;;;;;;;;4949101;29;20468;-75
2023/05/07 04:13:23;;;;;;;7.63;6.97;;;;;;;;;;4944261;29;20500;-74
2023/05/07 04:15:49;;;;;;;8.17;7.23;;;;;;;;;;4942277;29;20434;-75
2023/05/07 04:18:15;;;;;;;8.60;6.90;;;;;;;;;;4945455;29;20442;-75
2023/05/07 04:20:41;;;;;;;7.77;7.33;;;;;;;;;;4945611;29;20554;-76
2023/05/07 04:23:07;;;;;;;7.27;6.97;;;;;;;;;;4942058;29;20468;-73
2023/05/07 04:25:33;;;;;;;6.87;6.40;;;;;;;;;;4949451;29;20510;-74
2023/05/07 04:28:00;;;;;;;7.63;7.03;;;;;;;;;;4944513;29;20493;-74
2023/05/07 04:30:26;;;;;;;6.50;6.20;;;;;;;;;;4949723;29;20541;-76
2023/05/07 04:32:56;;;;;;;7.60;7.10;;;;;;;;;;4945965;29;20450;-75
2023/05/07 04:35:22;;;;;;;7.50;7.10;;;;;;;;;;4949030;29;20890;-75
2023/05/07 04:37:48;;;;;;;7.50;7.10;;;;;;;;;;4945258;29;20488;-74
2023/05/07 04:40:14;;;;;;;6.57;6.27;;;;;;;;;;4948662;28;20474;-75
2023/05/07 04:42:40;;;;;;;7.83;7.27;;;;;;;;;;4946004;28;20446;-75
2023/05/07 04:45:06;;;;;;;8.07;7.43;;;;;;;;;;4948358;29;20409;-74
2023/05/07 04:47:32;;;;;;;6.40;6.00;;;;;;;;;;4953295;28;20446;-75
2023/05/07 04:49:58;;;;;;;8.07;7.67;;;;;;;;;;4938653;29;20516;-75
2023/05/07 04:52:25;;;;;;;7.70;7.30;;;;;;;;;;4941206;28;20444;-76
2023/05/07 04:54:51;;;;;;;8.60;8.00;;;;;;;;;;4953950;28;20401;-74
2023/05/07 04:57:17;;;;;;;7.57;7.07;;;;;;;;;;4950474;28;20496;-76
2023/05/07 04:59:43;;;;;;;8.20;7.70;;;;;;;;;;4946077;28;20473;-75
2023/05/07 05:02:10;;;;;;;7.10;6.73;;;;;;;;;;4956490;28;20449;-75
2023/05/07 05:04:37;;;;;;;9.53;8.80;;;;;;;;;;4954102;28;20446;-75
2023/05/07 05:07:03;;;;;;;6.93;6.53;;;;;;;;;;4955296;28;20434;-75
2023/05/07 05:09:30;;;;;;;6.63;6.33;;;;;;;;;;4937046;28;20438;-75
2023/05/07 05:11:56;;;;;;;6.60;6.10;;;;;;;;;;4943438;28;20690;-75
2023/05/07 05:14:22;;;;;;;5.40;5.30;;;;;;;;;;4934128;28;20451;-75
2023/05/07 05:16:48;;;;;;;9.53;6.77;;;;;;;;;;4966222;28;20433;-75
2023/05/07 05:19:14;;;;;;;8.10;7.50;;;;;;;;;;4958654;28;20806;-75
2023/05/07 05:21:40;;;;;;;7.53;7.10;;;;;;;;;;4948353;28;20541;-75
2023/05/07 05:24:06;;;;;;;7.10;6.80;;;;;;;;;;4930689;28;20526;-76
2023/05/07 05:26:32;;;;;;;6.30;5.93;;;;;;;;;;4940064;28;20454;-74
2023/05/07 05:28:58;;;;;;;6.30;6.00;;;;;;;;;;4945028;28;20867;-75
2023/05/07 05:31:24;;;;;;;6.70;6.20;;;;;;;;;;4948653;28;20481;-74
2023/05/07 05:33:50;;;;;;;6.47;6.07;;;;;;;;;;4912838;29;20876;-74
2023/05/07 05:36:16;;;;;;;6.50;6.03;;;;;;;;;;4945066;28;20479;-74
2023/05/07 05:38:42;;;;;;;6.27;6.00;;;;;;;;;;4955177;28;20779;-75
2023/05/07 05:41:08;;;;;;;6.47;6.20;;;;;;;;;;4942048;28;20467;-74
2023/05/07 05:43:34;;;;;;;7.40;6.90;;;;;;;;;;4937545;28;20443;-75
2023/05/07 05:46:00;;;;;;;6.40;6.10;;;;;;;;;;4957326;28;21008;-74
2023/05/07 05:48:26;;;;;;;6.60;6.33;;;;;;;;;;4945403;28;20454;-75
2023/05/07 05:50:52;;;;;;;8.07;6.97;;;;;;;;;;4958527;28;20465;-75
2023/05/07 05:53:18;;;;;;;6.70;6.30;;;;;;;;;;4937879;28;20423;-74
2023/05/07 05:55:44;;;;;;;6.43;6.13;;;;;;;;;;4944355;28;20803;-74
2023/05/07 05:58:10;;;;;;;7.23;6.67;;;;;;;;;;4939586;28;20435;-74
2023/05/07 06:00:36;;;;;;;7.23;6.87;;;;;;;;;;4951844;28;20948;-74
2023/05/07 06:03:02;;;;;;;7.87;7.30;;;;;;;;;;4948784;28;20451;-74
2023/05/07 06:05:28;;;;;;;8.67;8.13;;;;;;;;;;4943718;28;20438;-75
2023/05/07 06:07:54;;;;;;;8.43;7.93;;;;;;;;;;4942257;29;20441;-75
2023/05/07 06:10:20;;;;;;;7.47;7.10;;;;;;;;;;4935019;28;20891;-75
2023/05/07 06:12:46;;;;;;;8.53;8.03;;;;;;;;;;4938588;29;20787;-74
2023/05/07 06:15:12;;;;;;;8.30;7.80;;;;;;;;;;4948338;28;20544;-74
2023/05/07 06:17:38;;;;;;;8.73;8.17;;;;;;;;;;4943745;29;20530;-74
2023/05/07 06:20:04;;;;;;;12.20;11.40;;;;;;;;;;4953457;28;20529;-74
2023/05/07 06:22:30;;;;;;;11.30;9.00;;;;;;;;;;4935922;29;21020;-75
2023/05/07 06:24:56;;;;;;;9.00;8.37;;;;;;;;;;4946819;28;20444;-75
2023/05/07 06:27:22;;;;;;;8.80;8.20;;;;;;;;;;4942721;29;20807;-75
2023/05/07 06:29:49;;;;;;;8.90;8.13;;;;;;;;;;4945365;28;20468;-75
2023/05/07 06:32:16;;;;;;;8.87;8.27;;;;;;;;;;4926398;29;20459;-74
2023/05/07 06:34:42;;;;;;;8.13;7.67;;;;;;;;;;4948584;28;20497;-75
2023/05/07 06:37:08;;;;;;;7.83;7.20;;;;;;;;;;4941615;29;20419;-74
2023/05/07 06:39:34;;;;;;;8.50;8.03;;;;;;;;;;4941190;28;20770;-74
2023/05/07 06:42:04;;;;;;;8.90;8.27;;;;;;;;;;4944367;29;20411;-75
2023/05/07 06:44:30;;;;;;;8.83;8.30;;;;;;;;;;4920393;29;20811;-74
2023/05/07 06:46:56;;;;;;;8.60;8.13;;;;;;;;;;4948778;29;20497;-74
2023/05/07 06:49:22;;;;;;;7.63;7.23;;;;;;;;;;4938581;29;20542;-74
2023/05/07 06:51:48;;;;;;;8.60;7.80;;;;;;;;;;4947798;29;20456;-74
2023/05/07 06:54:14;;;;;;;9.33;8.53;;;;;;;;;;4943951;29;20902;-74
2023/05/07 06:56:40;;;;;;;8.33;7.17;;;;;;;;;;4947622;29;20414;-74
2023/05/07 06:59:06;;;;;;;5.93;5.63;;;;;;;;;;4947127;29;20438;-75
2023/05/07 07:01:33;;;;;;;7.10;6.60;;;;;;;;;;4939410;29;20510;-75
2023/05/07 07:03:59;;;;;;;7.27;6.60;;;;;;;;;;4940397;29;20517;-75
2023/05/07 07:06:25;;;;;;;6.37;6.07;;;;;;;;;;4936347;29;20447;-75
2023/05/07 07:08:51;;;;;;;6.50;6.10;;;;;;;;;;4943422;29;20434;-76
2023/05/07 07:11:17;;;;;;;6.50;6.30;;;;;;;;;;4942274;28;20882;-74
2023/05/07 07:13:43;;;;;;;6.73;6.40;;;;;;;;;;4946486;29;20426;-74
2023/05/07 07:16:09;;;;;;;6.70;6.30;;;;;;;;;;4945831;29;20434;-74
2023/05/07 07:18:35;;;;;;;6.53;6.23;;;;;;;;;;4944034;29;20792;-76
2023/05/07 07:21:01;;;;;;;6.60;6.00;;;;;;;;;;4935287;29;20652;-75
2023/05/07 07:23:27;;;;;;;5.43;5.23;;;;;;;;;;4949029;29;20604;-74
2023/05/07 07:25:53;;;;;;;5.73;5.53;;;;;;;;;;4936147;29;20533;-75
2023/05/07 07:28:21;;;;;;;5.33;5.23;;;;;;;;;;4936639;28;20473;-75
2023/05/07 07:30:47;;;;;;;7.77;7.07;;;;;;;;;;4930800;29;20471;-75
2023/05/07 07:33:14;;;;;;;6.13;5.77;;;;;;;;;;4926830;29;20516;-75
2023/05/07 07:35:40;;;;;;;5.17;5.07;;;;;;;;;;4942188;29;20507;-76
2023/05/07 07:38:06;;;;;;;5.33;5.03;;;;;;;;;;4945961;29;20698;-75
2023/05/07 07:40:32;;;;;;;5.40;5.20;;;;;;;;;;4941630;29;20458;-74
2023/05/07 07:42:58;;;;;;;5.93;5.53;;;;;;;;;;4948134;29;20434;-74
2023/05/07 07:45:24;;;;;;;5.50;5.20;;;;;;;;;;4946032;29;20524;-74
2023/05/07 07:47:50;;;;;;;5.00;4.77;;;;;;;;;;4944639;29;20923;-74
2023/05/07 07:50:16;;;;;;;5.60;5.17;;;;;;;;;;4946290;29;20470;-74
2023/05/07 07:52:42;;;;;;;5.03;4.63;;;;;;;;;;4939996;29;20996;-75
2023/05/07 07:55:08;;;;;;;4.50;4.30;;;;;;;;;;4941158;29;20435;-75
2023/05/07 07:57:34;;;;;;;4.83;4.50;;;;;;;;;;4939739;29;20434;-76
2023/05/07 08:00:00;;;;;;;4.07;3.97;;;;;;;;;;4943460;29;20449;-75
2023/05/07 08:02:26;;;;;;;4.30;4.10;;;;;;;;;;4941199;28;20868;-76
2023/05/07 08:04:52;;;;;;;4.43;4.30;;;;;;;;;;4950379;29;20420;-75
2023/05/07 08:07:20;;;;;;;3.83;3.70;;;;;;;;;;4940803;29;20541;-76
2023/05/07 08:09:47;;;;;;;3.80;3.60;;;;;;;;;;4943320;29;20406;-76
2023/05/07 08:12:13;;;;;;;4.50;4.30;;;;;;;;;;4934089;29;20445;-76
2023/05/07 08:14:39;;;;;;;4.47;4.20;;;;;;;;;;4947406;29;20386;-76
2023/05/07 08:17:05;;;;;;;4.07;3.88;;;;;;;;;;4942398;29;20405;-76
2023/05/07 08:19:31;;;;;;;3.40;3.30;;;;;;;;;;4948134;29;20444;-75
2023/05/07 08:21:57;;;;;;;3.80;3.63;;;;;;;;;;4936127;28;20202;-75
2023/05/07 08:24:23;;;;;;;4.43;4.23;;;;;;;;;;4938064;29;20514;-75
2023/05/07 08:26:49;;;;;;;3.43;3.23;;;;;;;;;;4941084;29;20494;-77
2023/05/07 08:29:15;;;;;;;3.40;3.20;;;;;;;;;;4946351;28;20435;-75
2023/05/07 08:31:41;;;;;;;3.90;3.57;;;;;;;;;;4942857;29;20470;-75
2023/05/07 08:34:07;;;;;;;3.57;3.47;;;;;;;;;;4944340;29;20538;-75
2023/05/07 08:36:33;;;;;;;3.20;3.20;;;;;;;;;;4943545;29;20461;-76
2023/05/07 08:39:00;;;;;;;3.70;3.50;;;;;;;;;;4940361;29;20479;-76
2023/05/07 08:41:26;;;;;;;3.20;3.00;;;;;;;;;;4938038;29;20457;-75
2023/05/07 08:43:52;;;;;;;2.70;2.70;;;;;;;;;;4930287;28;20457;-75
2023/05/07 08:46:20;;;;;;;2.50;2.50;;;;;;;;;;4940849;29;20442;-75
2023/05/07 08:48:48;;;;;;;3.30;3.00;;;;;;;;;;4931236;29;20490;-75
2023/05/07 08:51:16;;;;;;;3.07;2.60;;;;;;;;;;4942146;29;20474;-75
2023/05/07 08:53:42;;;;;;;2.40;2.40;;;;;;;;;;4937298;29;20443;-75
2023/05/07 08:56:12;;;;;;;2.37;2.37;;;;;;;;;;4940272;29;20438;-77
2023/05/07 08:58:38;;;;;;;2.80;2.70;;;;;;;;;;4931717;29;20460;-75
2023/05/07 09:01:11;;;;;;;1.97;1.90;;;;;;;;;;4944524;29;20434;-76
2023/05/07 09:03:38;;;;;;;2.13;2.13;;;;;;;;;;4944868;29;20462;-75
2023/05/07 09:06:05;;;;;;;2.40;2.30;;;;;;;;;;4941074;28;20442;-75
2023/05/07 09:08:32;;;;;;;3.00;2.67;;;;;;;;;;4945139;29;20465;-77
2023/05/07 09:10:59;;;;;;;2.20;2.20;;;;;;;;;;4937885;29;20488;-75
2023/05/07 09:13:25;;;;;;;2.10;2.10;;;;;;;;;;4940319;29;20411;-75
2023/05/07 09:15:51;;;;;;;3.13;2.43;;;;;;;;;;4938683;29;20460;-75
2023/05/07 09:18:17;;;;;;;2.50;2.50;;;;;;;;;;4942967;29;20438;-76
2023/05/07 09:20:43;;;;;;;2.50;2.40;;;;;;;;;;4943562;29;20889;-76
2023/05/07 09:23:09;;;;;;;2.10;2.10;;;;;;;;;;4934074;29;20423;-75
2023/05/07 09:25:36;;;;;;;2.03;1.90;;;;;;;;;;4925827;29;20449;-75
2023/05/07 09:28:04;;;;;;;2.63;2.53;;;;;;;;;;4939582;29;20450;-75
2023/05/07 09:30:34;;;;;;;2.30;2.20;;;;;;;;;;4935776;29;20466;-74
2023/05/07 09:33:00;;;;;;;2.40;2.30;;;;;;;;;;4947444;28;20517;-76
2023/05/07 09:35:27;;;;;;;2.00;1.90;;;;;;;;;;4943588;29;20449;-75
2023/05/07 09:37:54;;;;;;;2.40;1.90;;;;;;;;;;4932961;29;20483;-76
2023/05/07 09:40:22;;;;;;;1.87;1.87;;;;;;;;;;4943198;29;20837;-75
2023/05/07 09:42:49;;;;;;;2.07;2.00;;;;;;;;;;4948372;29;20425;-76
2023/05/07 09:45:15;;;;;;;2.30;2.30;;;;;;;;;;4946857;29;20437;-75
2023/05/07 09:47:47;;;;;;;2.17;2.07;;;;;;;;;;4933279;28;20823;-75
2023/05/07 09:50:13;;;;;;;1.30;1.30;;;;;;;;;;4928815;29;20465;-75
2023/05/07 09:52:40;;;;;;;2.07;2.07;;;;;;;;;;4936914;29;20430;-75
2023/05/07 09:55:06;;;;;;;2.47;2.47;;;;;;;;;;4937775;29;20467;-75
2023/05/07 09:57:33;;;;;;;2.03;2.03;;;;;;;;;;4942365;29;20457;-76
2023/05/07 10:00:00;;;;;;;2.00;2.00;;;;;;;;;;4937133;29;20445;-75
2023/05/07 10:02:28;;;;;;;1.90;1.80;;;;;;;;;;4944792;29;20458;-75
2023/05/07 10:04:54;;;;;;;2.87;2.70;;;;;;;;;;4945859;29;20521;-76
2023/05/07 10:07:21;;;;;;;3.97;2.47;;;;;;;;;;4944827;29;20544;-75
2023/05/07 10:09:47;;;;;;;2.07;1.97;;;;;;;;;;4943544;29;20446;-76
2023/05/07 10:12:13;;;;;;;1.93;1.83;;;;;;;;;;4942214;29;20533;-75
2023/05/07 10:14:39;;;;;;;2.00;1.93;;;;;;;;;;4941690;29;20481;-74
2023/05/07 10:17:06;;;;;;;3.70;3.50;;;;;;;;;;4946742;29;20522;-76
2023/05/07 10:19:33;;;;;;;1.77;1.67;;;;;;;;;;4943741;29;20444;-75
2023/05/07 10:22:03;;;;;;;2.40;2.30;;;;;;;;;;4940826;29;20419;-75
2023/05/07 10:24:33;;;;;;;1.77;1.77;;;;;;;;;;4943708;29;20829;-75
2023/05/07 10:27:01;;;;;;;1.80;1.70;;;;;;;;;;4940135;29;20420;-76
2023/05/07 10:29:27;;;;;;;2.40;2.40;;;;;;;;;;4940368;29;20461;-75
2023/05/07 10:31:53;;;;;;;2.03;2.00;;;;;;;;;;4931010;29;20463;-76
2023/05/07 10:34:22;;;;;;;1.80;1.80;;;;;;;;;;4937699;29;20466;-76
2023/05/07 10:36:49;;;;;;;2.10;2.00;;;;;;;;;;4935952;29;20442;-76
2023/05/07 10:39:15;;;;;;;2.23;2.20;;;;;;;;;;4941717;28;21001;-77
2023/05/07 10:41:41;;;;;;;5.13;3.27;;;;;;;;;;4945682;29;20957;-78
2023/05/07 10:44:07;;;;;;;3.23;3.13;;;;;;;;;;4940242;29;20445;-77
2023/05/07 10:46:35;;;;;;;2.27;2.27;;;;;;;;;;4940316;29;20435;-77
2023/05/07 10:49:05;;;;;;;2.20;2.07;;;;;;;;;;4943944;29;20442;-76
2023/05/07 10:51:32;;;;;;;2.20;2.07;;;;;;;;;;4943778;29;20470;-75
2023/05/07 10:54:11;;;;;;;2.10;2.10;;;;;;;;;;4946318;29;20481;-75
2023/05/07 10:56:42;;;;;;;2.63;2.63;;;;;;;;;;4938754;29;20446;-76
2023/05/07 10:59:21;;;;;;;2.43;2.40;;;;;;;;;;4932958;29;20662;-76
2023/05/07 11:01:51;;;;;;;2.40;2.40;;;;;;;;;;4940341;29;20441;-75
2023/05/07 11:04:24;;;;;;;2.80;2.70;;;;;;;;;;4943839;29;20503;-76
2023/05/07 11:07:08;;;;;;;3.17;3.17;;;;;;;;;;4936726;29;20975;-75
2023/05/07 11:10:04;;;;;;;2.50;2.50;;;;;;;;;;4943302;29;20988;-74
2023/05/07 11:12:36;;;;;;;2.80;2.80;;;;;;;;;;4926981;29;20514;-75
2023/05/07 11:15:09;;;;;;;2.73;2.53;;;;;;;;;;4943447;29;20773;-75
2023/05/07 11:17:52;;;;;;;2.83;2.73;;;;;;;;;;4937241;29;20439;-75
2023/05/07 11:20:18;;;;;;;2.67;2.63;;;;;;;;;;4941540;29;20461;-75
2023/05/07 11:22:44;;;;;;;3.60;3.00;;;;;;;;;;4942222;29;20485;-75
2023/05/07 11:25:10;;;;;;;2.70;2.60;;;;;;;;;;4945855;29;20522;-75
2023/05/07 11:27:36;;;;;;;2.77;2.57;;;;;;;;;;4942166;29;20833;-75
2023/05/07 11:30:03;;;;;;;2.50;2.40;;;;;;;;;;4943264;28;20453;-76
2023/05/07 11:32:30;;;;;;;2.80;2.60;;;;;;;;;;4936699;29;20446;-75
2023/05/07 11:34:56;;;;;;;3.30;3.10;;;;;;;;;;4943174;29;20450;-77
2023/05/07 11:37:23;;;;;;;2.80;2.70;;;;;;;;;;4939562;29;20517;-76
2023/05/07 11:39:54;;;;;;;2.87;2.77;;;;;;;;;;4944994;29;21388;-76
2023/05/07 11:42:26;;;;;;;2.60;2.53;;;;;;;;;;4930217;29;20654;-75
2023/05/07 11:44:52;;;;;;;3.33;3.23;;;;;;;;;;4939270;29;20714;-76
2023/05/07 11:47:19;;;;;;;2.70;2.70;;;;;;;;;;4947318;29;21103;-76
2023/05/07 11:49:49;;;;;;;2.90;2.90;;;;;;;;;;4941741;29;20451;-76
2023/05/07 11:52:15;;;;;;;2.50;2.40;;;;;;;;;;4930196;29;20514;-76
2023/05/07 11:54:41;;;;;;;2.63;2.60;;;;;;;;;;4938008;29;20442;-73
2023/05/07 11:57:14;;;;;;;3.07;2.97;;;;;;;;;;4945379;28;20994;-76
2023/05/07 11:59:41;;;;;;;2.73;2.73;;;;;;;;;;4939383;29;20841;-75
2023/05/07 12:02:07;;;;;;;3.17;3.07;;;;;;;;;;4942532;29;20426;-75
2023/05/07 12:04:33;;;;;;;3.10;3.10;;;;;;;;;;4923858;29;20438;-75
2023/05/07 12:06:59;;;;;;;6.37;3.33;;;;;;;;;;4947598;29;20929;-76
2023/05/07 12:09:26;;;;;;;3.30;3.30;;;;;;;;;;4944718;29;20461;-76
2023/05/07 12:11:52;;;;;;;3.53;3.33;;;;;;;;;;4945341;29;20473;-75
2023/05/07 12:14:19;;;;;;;3.90;3.07;;;;;;;;;;4945300;29;20442;-75
2023/05/07 12:16:45;;;;;;;7.17;3.30;;;;;;;;;;4949236;29;21167;-76
2023/05/07 12:19:12;;;;;;;4.43;3.00;;;;;;;;;;4944265;29;20446;-75
2023/05/07 12:21:39;;;;;;;2.87;2.70;;;;;;;;;;4941705;29;20917;-77
2023/05/07 12:24:05;;;;;;;4.07;3.93;;;;;;;;;;4934807;29;20454;-75
2023/05/07 12:26:31;;;;;;;3.77;3.57;;;;;;;;;;4944218;29;20969;-74
2023/05/07 12:29:03;;;;;;;3.47;3.37;;;;;;;;;;4943276;28;20528;-75
2023/05/07 12:31:29;;;;;;;3.60;3.50;;;;;;;;;;4944841;29;20795;-77
2023/05/07 12:33:55;;;;;;;3.73;3.73;;;;;;;;;;4944425;29;20926;-76
2023/05/07 12:36:21;;;;;;;4.00;3.90;;;;;;;;;;4946969;29;20520;-77
2023/05/07 12:38:49;;;;;;;4.43;4.20;;;;;;;;;;4938773;29;20445;-76
2023/05/07 12:41:16;;;;;;;3.80;3.60;;;;;;;;;;4941686;29;20580;-77
2023/05/07 12:43:45;;;;;;;4.77;4.47;;;;;;;;;;4924752;29;20568;-76
2023/05/07 12:46:18;;;;;;;4.53;4.33;;;;;;;;;;4937602;29;20450;-76
2023/05/07 12:48:47;;;;;;;4.27;4.10;;;;;;;;;;4943833;29;20801;-78
2023/05/07 12:51:16;;;;;;;4.63;4.53;;;;;;;;;;4941481;28;20577;-76
2023/05/07 12:53:43;;;;;;;4.80;4.67;;;;;;;;;;4928786;29;20490;-76
2023/05/07 12:56:09;;;;;;;5.63;5.33;;;;;;;;;;4946087;29;20442;-76
2023/05/07 12:58:35;;;;;;;5.30;5.20;;;;;;;;;;4943792;29;20984;-76
2023/05/07 13:01:09;;;;;;;5.00;4.90;;;;;;;;;;4938358;29;20923;-75
2023/05/07 13:03:36;;;;;;;5.70;5.40;;;;;;;;;;4937396;29;20729;-76
2023/05/07 13:06:03;;;;;;;5.23;5.03;;;;;;;;;;4927652;29;20563;-77
2023/05/07 13:08:31;;;;;;;6.13;5.70;;;;;;;;;;4933453;29;20551;-75
2023/05/07 13:10:58;;;;;;;6.90;6.40;;;;;;;;;;4934661;29;20470;-76
2023/05/07 13:13:24;;;;;;;7.23;6.53;;;;;;;;;;4942582;29;20537;-76
2023/05/07 13:15:51;;;;;;;5.60;5.20;;;;;;;;;;4931483;29;20411;-75
2023/05/07 13:18:17;;;;;;;5.70;5.50;;;;;;;;;;4942983;29;20690;-76
2023/05/07 13:20:43;;;;;;;5.13;4.83;;;;;;;;;;4923253;29;20427;-75
2023/05/07 13:23:09;;;;;;;5.20;5.00;;;;;;;;;;4930896;29;20493;-76
2023/05/07 13:25:35;;;;;;;6.53;5.90;;;;;;;;;;4946628;29;20426;-76
2023/05/07 13:28:01;;;;;;;6.23;5.63;;;;;;;;;;4936188;28;20481;-76
2023/05/07 13:30:27;;;;;;;5.70;5.50;;;;;;;;;;4937296;29;20442;-75
2023/05/07 13:32:54;;;;;;;6.67;6.10;;;;;;;;;;4927803;29;20190;-76
2023/05/07 13:35:20;;;;;;;5.80;5.50;;;;;;;;;;4947200;29;20526;-75
2023/05/07 13:37:48;;;;;;;6.17;5.90;;;;;;;;;;4938895;29;20434;-75
2023/05/07 13:40:15;;;;;;;6.57;6.07;;;;;;;;;;4941724;29;20487;-76
2023/05/07 13:42:41;;;;;;;6.90;6.30;;;;;;;;;;4920753;29;20922;-75
2023/05/07 13:45:08;;;;;;;6.40;6.20;;;;;;;;;;4925917;29;20538;-76
2023/05/07 13:47:34;;;;;;;7.90;7.00;;;;;;;;;;4926194;29;20435;-76
2023/05/07 13:50:01;;;;;;;7.53;6.93;;;;;;;;;;4914739;29;20451;-76
2023/05/07 13:52:27;;;;;;;8.17;7.57;;;;;;;;;;4924702;29;20440;-76
2023/05/07 13:54:53;;;;;;;8.57;7.87;;;;;;;;;;4916401;29;20452;-76
2023/05/07 13:57:19;;;;;;;7.80;7.40;;;;;;;;;;4920724;29;20467;-76
2023/05/07 13:59:45;;;;;;;8.67;7.90;;;;;;;;;;4923339;29;20520;-76
2023/05/07 14:02:11;;;;;;;7.87;7.47;;;;;;;;;;4920343;29;20982;-75
2023/05/07 14:04:38;;;;;;;7.83;7.50;;;;;;;;;;4923940;29;20447;-75
2023/05/07 14:07:04;;;;;;;7.97;7.37;;;;;;;;;;4918959;29;20796;-75
2023/05/07 14:09:30;;;;;;;9.33;8.27;;;;;;;;;;4916794;29;20470;-77
2023/05/07 14:11:56;;;;;;;10.57;9.60;;;;;;;;;;4921523;29;20978;-75
2023/05/07 14:14:23;;;;;;;9.70;8.90;;;;;;;;;;4915604;29;20460;-76
2023/05/07 14:16:49;;;;;;;10.70;10.00;;;;;;;;;;4918938;29;20416;-77
2023/05/07 14:19:15;;;;;;;10.20;9.50;;;;;;;;;;4922103;29;20817;-74
2023/05/07 14:21:41;;;;;;;10.85;9.85;;;;;;;;;;4928715;29;20449;-76
2023/05/07 14:24:08;;;;;;;10.40;9.60;;;;;;;;;;4921471;29;20241;-75
2023/05/07 14:26:34;;;;;;;10.47;9.40;;;;;;;;;;4923571;29;20483;-75
2023/05/07 14:29:00;;;;;;;10.23;9.40;;;;;;;;;;4927438;29;20482;-77
2023/05/07 14:31:27;;;;;;;11.35;10.35;;;;;;;;;;4921497;29;20516;-75
2023/05/07 14:33:53;;;;;;;10.20;9.40;;;;;;;;;;4922460;29;20539;-77
2023/05/07 14:36:24;;;;;;;11.97;10.97;;;;;;;;;;4916886;29;20935;-77
2023/05/07 14:38:50;;;;;;;;;;;;;;;;;;4921710;29;20303;-76
2023/05/07 14:41:16;;;;;;;12.88;11.88;;;;;;;;;;4936755;29;20445;-77